Time;durP1;ratioP1;P1;durP2;ratioP2;P2;SDS_P1;SDS_P2;PMS_P1;PMS_P2;Temp;Humidity;BMP_temperature;BMP_pressure;BME280_temperature;BME280_humidity;BME280_pressure;Samples;Min_cycle;Max_cycle;Signal;HPM_P1;HPM_P2
2022/11/16 00:04:14;;;;;;;8.85;7.82;;;;;;;10.27;100.00;99552.72;10540002;28;19920;-71
2022/11/16 00:09:22;;;;;;;9.88;8.15;;;;;;;10.22;100.00;99543.50;10539566;28;20044;-71
2022/11/16 00:14:29;;;;;;;13.10;9.52;;;;;;;10.21;100.00;99558.31;10539149;28;20048;-73
2022/11/16 00:19:31;;;;;;;10.18;8.80;;;;;;;10.27;100.00;99557.91;10537085;28;20056;-72
2022/11/16 00:24:32;;;;;;;;;;;;;;;10.35;100.00;99562.69;10539716;28;20048;-72
2022/11/16 00:29:35;;;;;;;9.13;7.55;;;;;;;10.38;100.00;99553.81;10538812;28;19969;-73
2022/11/16 00:34:38;;;;;;;13.95;9.52;;;;;;;10.33;100.00;99567.13;10538931;28;20100;-71
2022/11/16 00:39:40;;;;;;;11.93;8.68;;;;;;;10.32;100.00;99552.44;10539023;28;20047;-72
2022/11/16 00:44:43;;;;;;;11.60;8.15;;;;;;;10.31;100.00;99540.34;10538348;28;20440;-72
2022/11/16 00:49:44;;;;;;;8.70;6.68;;;;;;;10.33;100.00;99516.78;10546985;28;20048;-74
2022/11/16 00:54:46;;;;;;;9.15;6.45;;;;;;;10.30;100.00;99518.63;10551980;28;20044;-71
2022/11/16 00:59:49;;;;;;;11.13;8.23;;;;;;;10.33;100.00;99555.88;10552067;28;20048;-72
2022/11/16 01:04:52;;;;;;;8.55;7.40;;;;;;;10.35;100.00;99533.16;10551844;28;20496;-71
2022/11/16 01:09:54;;;;;;;11.45;8.57;;;;;;;10.35;100.00;99536.59;10551560;28;20083;-70
2022/11/16 01:14:58;;;;;;;10.25;8.07;;;;;;;10.37;100.00;99520.88;10551905;28;20097;-73
2022/11/16 01:19:59;;;;;;;11.25;8.20;;;;;;;10.35;100.00;99517.50;10550064;28;20112;-73
2022/11/16 01:25:03;;;;;;;12.18;8.45;;;;;;;10.34;100.00;99521.06;10551390;28;20461;-72
2022/11/16 01:30:10;;;;;;;10.30;8.00;;;;;;;10.35;100.00;99512.28;10551185;28;20547;-73
2022/11/16 01:35:17;;;;;;;9.27;7.30;;;;;;;10.34;100.00;99511.47;10551345;28;20116;-74
2022/11/16 01:40:19;;;;;;;10.63;7.97;;;;;;;10.36;100.00;99512.19;10551590;28;20060;-74
2022/11/16 01:45:33;;;;;;;11.68;7.93;;;;;;;10.35;100.00;99507.06;10551761;28;20044;-75
2022/11/16 01:50:36;;;;;;;13.52;9.50;;;;;;;10.37;100.00;99505.22;10549737;28;20090;-74
2022/11/16 01:55:42;;;;;;;12.95;9.10;;;;;;;10.40;100.00;99499.81;10551554;28;20048;-74
2022/11/16 02:00:45;;;;;;;14.02;10.65;;;;;;;10.41;100.00;99498.88;10544857;28;20418;-74
2022/11/16 02:06:13;;;;;;;11.65;10.00;;;;;;;10.44;100.00;99498.69;10544133;28;20055;-73
2022/11/16 02:11:37;;;;;;;15.35;10.02;;;;;;;10.41;100.00;99488.44;10544154;28;20048;-74
2022/11/16 02:16:53;;;;;;;15.75;10.25;;;;;;;10.42;100.00;99488.34;10541972;28;20101;-72
2022/11/16 02:22:13;;;;;;;14.35;9.27;;;;;;;10.46;100.00;99491.63;10543939;28;20065;-78
2022/11/16 02:27:51;;;;;;;14.10;9.18;;;;;;;10.48;100.00;99481.09;10542648;28;20562;-76
2022/11/16 02:33:03;;;;;;;15.45;10.73;;;;;;;10.47;100.00;99480.25;10541171;28;20086;-72
2022/11/16 02:38:13;;;;;;;13.95;8.73;;;;;;;10.46;100.00;99478.56;10541801;28;20064;-75
2022/11/16 02:43:25;;;;;;;11.25;8.68;;;;;;;10.52;100.00;99482.56;10540723;28;20410;-74
2022/11/16 02:48:34;;;;;;;;;;;;;;;10.51;100.00;99501.75;10538634;28;20048;-75
2022/11/16 02:53:51;;;;;;;11.93;8.68;;;;;;;10.47;100.00;99521.97;10540867;28;19965;-74
2022/11/16 02:58:53;;;;;;;12.15;9.25;;;;;;;10.36;100.00;99509.59;10540604;28;20044;-72
2022/11/16 03:04:07;;;;;;;8.40;7.07;;;;;;;10.25;100.00;99501.59;10540163;28;20052;-71
2022/11/16 03:09:15;;;;;;;8.20;6.25;;;;;;;10.13;100.00;99504.03;10539143;28;20048;-71
2022/11/16 03:14:22;;;;;;;7.63;5.82;;;;;;;10.05;100.00;99499.31;10539664;28;20101;-72
2022/11/16 03:19:33;;;;;;;7.25;6.15;;;;;;;10.01;100.00;99510.84;10536825;28;20101;-73
2022/11/16 03:24:35;;;;;;;8.90;6.40;;;;;;;9.93;100.00;99518.31;10539368;28;20453;-73
2022/11/16 03:29:46;;;;;;;10.05;6.30;;;;;;;9.87;100.00;99519.53;10538439;28;20063;-74
2022/11/16 03:34:59;;;;;;;10.20;5.20;;;;;;;9.79;100.00;99519.16;10539033;28;20073;-72
2022/11/16 03:40:04;;;;;;;8.57;5.05;;;;;;;9.70;100.00;99528.34;10538243;28;20720;-73
2022/11/16 03:45:08;;;;;;;10.40;5.05;;;;;;;9.64;100.00;99523.50;10538507;28;20052;-73
2022/11/16 03:50:12;;;;;;;7.63;3.95;;;;;;;9.56;100.00;99541.34;10539365;28;20145;-72
2022/11/16 03:55:14;;;;;;;7.78;3.70;;;;;;;9.49;100.00;99546.94;10542188;28;20127;-75
2022/11/16 04:00:16;;;;;;;6.68;3.35;;;;;;;9.41;100.00;99559.53;10544900;28;20058;-75
2022/11/16 04:37:51;;;;;;;5.32;3.35;;;;;;;9.06;100.00;99559.81;10536672;28;20048;-75
2022/11/16 04:42:53;;;;;;;9.50;3.67;;;;;;;9.02;100.00;99569.56;10536349;28;20399;-75
2022/11/16 04:47:55;;;;;;;7.53;4.05;;;;;;;8.98;100.00;99575.84;10534781;28;20056;-75
2022/11/16 04:53:09;;;;;;;6.38;4.40;;;;;;;8.98;100.00;99594.06;10536862;28;20044;-76
2022/11/16 04:58:11;;;;;;;10.07;4.22;;;;;;;8.95;100.00;99595.09;10536025;28;20496;-76
2022/11/16 05:03:13;;;;;;;9.38;4.00;;;;;;;8.99;100.00;99595.75;10536174;28;20052;-76
2022/11/16 05:08:16;;;;;;;10.23;4.38;;;;;;;8.98;100.00;99594.06;10536632;28;20047;-75
2022/11/16 05:13:19;;;;;;;9.23;3.80;;;;;;;8.93;100.00;99591.72;10536224;28;20054;-73
2022/11/16 05:18:21;;;;;;;8.80;3.88;;;;;;;8.80;100.00;99590.72;10533447;28;20056;-74
2022/11/16 05:28:43;;;;;;;6.85;3.70;;;;;;;8.62;100.00;99593.41;10535554;28;20044;-74
2022/11/16 05:33:45;;;;;;;8.60;4.28;;;;;;;8.52;100.00;99582.63;10538020;28;20101;-73
2022/11/16 05:38:48;;;;;;;8.05;4.38;;;;;;;8.33;100.00;99582.78;10543918;28;20044;-72
2022/11/16 05:43:49;;;;;;;8.50;4.43;;;;;;;8.22;100.00;99597.19;10542844;28;20099;-72
2022/11/16 05:48:51;;;;;;;11.98;4.70;;;;;;;8.19;100.00;99592.16;10540337;28;20055;-72
2022/11/16 05:53:54;;;;;;;12.07;4.50;;;;;;;8.17;100.00;99599.19;10542984;28;20052;-71
2022/11/16 05:58:56;;;;;;;10.80;4.38;;;;;;;8.15;100.00;99611.44;10542130;28;20040;-72
2022/11/16 06:03:59;;;;;;;9.85;4.55;;;;;;;7.99;100.00;99616.56;10542577;28;20052;-72
2022/11/16 06:09:02;;;;;;;8.98;4.78;;;;;;;7.93;100.00;99612.53;10542550;28;20052;-72
2022/11/16 06:14:04;;;;;;;8.75;4.32;;;;;;;7.82;100.00;99620.03;10542274;28;20044;-72
2022/11/16 06:19:06;;;;;;;7.05;4.30;;;;;;;7.78;100.00;99613.31;10539449;28;20492;-72
2022/11/16 06:24:09;;;;;;;8.85;4.18;;;;;;;7.70;100.00;99627.53;10541208;28;20404;-70
2022/11/16 06:29:12;;;;;;;8.10;4.07;;;;;;;7.64;100.00;99635.63;10541572;28;20067;-72
2022/11/16 06:34:14;;;;;;;6.20;4.10;;;;;;;7.67;100.00;99643.25;10541836;28;20056;-72
2022/11/16 06:39:17;;;;;;;9.13;4.22;;;;;;;7.58;100.00;99644.56;10540760;28;20516;-72
2022/11/16 06:44:19;;;;;;;13.05;4.45;;;;;;;7.52;100.00;99644.03;10540063;28;20113;-72
2022/11/16 06:49:21;;;;;;;9.30;4.00;;;;;;;7.55;100.00;99638.66;10537914;28;20455;-73
2022/11/16 06:54:24;;;;;;;11.55;4.22;;;;;;;7.50;100.00;99656.22;10540925;28;20052;-72
2022/11/16 06:59:25;;;;;;;11.00;4.25;;;;;;;7.51;100.00;99655.31;10539993;28;20080;-72
2022/11/16 07:04:27;;;;;;;8.13;4.88;;;;;;;7.53;100.00;99653.50;10538247;28;20537;-73
2022/11/16 07:09:30;;;;;;;14.23;5.53;;;;;;;7.46;100.00;99658.16;10538557;28;20068;-74
2022/11/16 07:14:32;;;;;;;13.82;6.00;;;;;;;7.46;100.00;99669.34;10522004;28;20048;-73
2022/11/16 07:19:35;;;;;;;11.23;6.22;;;;;;;7.46;100.00;99671.94;10500218;28;20101;-72
2022/11/16 07:24:38;;;;;;;16.92;5.78;;;;;;;7.46;100.00;99679.75;10537510;28;20051;-70
2022/11/16 07:29:40;;;;;;;13.05;4.75;;;;;;;7.52;100.00;99670.00;10537627;28;20105;-74
2022/11/16 07:34:41;;;;;;;19.63;6.20;;;;;;;7.51;100.00;99689.06;10537418;28;20056;-71
2022/11/16 07:39:45;;;;;;;16.77;6.30;;;;;;;7.51;100.00;99696.84;10536986;28;20082;-71
2022/11/16 07:44:46;;;;;;;11.23;5.32;;;;;;;7.52;100.00;99696.78;10537044;28;20052;-73
2022/11/16 07:49:49;;;;;;;15.80;5.10;;;;;;;7.57;100.00;99699.16;10534000;28;20393;-72
2022/11/16 07:54:52;;;;;;;11.48;3.90;;;;;;;7.63;100.00;99698.84;10532546;28;20085;-73
2022/11/16 07:59:54;;;;;;;9.55;4.28;;;;;;;7.64;100.00;99715.28;10524703;28;20044;-72
2022/11/16 08:04:56;;;;;;;12.60;4.10;;;;;;;7.65;100.00;99707.41;10497903;28;20074;-74
2022/11/16 08:09:59;;;;;;;11.15;4.28;;;;;;;7.69;100.00;99719.34;10537782;28;20074;-72
2022/11/16 08:15:00;;;;;;;14.32;3.90;;;;;;;7.75;100.00;99709.56;10508470;28;20039;-69
2022/11/16 08:20:04;;;;;;;13.20;3.88;;;;;;;7.76;100.00;99719.88;10518330;28;20052;-72
2022/11/16 08:25:08;;;;;;;13.18;3.50;;;;;;;7.94;100.00;99722.50;10537320;28;20051;-74
2022/11/16 08:30:11;;;;;;;10.02;3.85;;;;;;;8.29;100.00;99717.28;10536889;28;20074;-74
2022/11/16 08:35:13;;;;;;;11.80;4.20;;;;;;;8.88;100.00;99713.44;10536958;28;20056;-74
2022/11/16 08:40:18;;;;;;;8.68;3.30;;;;;;;8.57;100.00;99718.50;10536959;28;20096;-73
2022/11/16 08:45:19;;;;;;;12.25;3.40;;;;;;;9.05;100.00;99716.88;10536858;28;20093;-71
2022/11/16 08:50:21;;;;;;;7.45;2.38;;;;;;;8.84;100.00;99724.91;10507816;28;20593;-75
2022/11/16 08:55:24;;;;;;;10.18;3.05;;;;;;;8.61;100.00;99730.41;10495136;28;20056;-70
2022/11/16 09:00:26;;;;;;;11.95;2.70;;;;;;;8.95;100.00;99725.19;10495274;28;20048;-70
2022/11/16 09:05:28;;;;;;;10.90;2.63;;;;;;;9.66;100.00;99730.88;10494628;28;20165;-73
2022/11/16 09:10:31;;;;;;;13.18;3.13;;;;;;;10.18;100.00;99735.78;10515273;28;20056;-68
2022/11/16 09:15:33;;;;;;;9.48;2.67;;;;;;;10.41;100.00;99738.81;10543877;28;20060;-69
2022/11/16 09:20:35;;;;;;;9.40;2.85;;;;;;;10.63;100.00;99740.16;10541518;28;20391;-69
2022/11/16 09:25:37;;;;;;;10.32;2.47;;;;;;;11.32;100.00;99732.44;10543782;28;20048;-68
2022/11/16 09:30:39;;;;;;;9.32;2.58;;;;;;;11.07;100.00;99735.75;10543099;28;20056;-69
2022/11/16 09:35:41;;;;;;;7.55;2.10;;;;;;;11.12;100.00;99738.91;10543976;28;20097;-67
2022/11/16 09:40:47;;;;;;;7.68;1.98;;;;;;;10.77;100.00;99740.16;10542806;28;20106;-66
2022/11/16 09:46:00;;;;;;;11.20;2.55;;;;;;;10.27;100.00;99750.06;10541882;28;20101;-68
2022/11/16 09:51:07;;;;;;;9.43;2.15;;;;;;;11.27;100.00;99746.72;10542746;28;20082;-67
2022/11/16 09:56:14;;;;;;;9.25;2.00;;;;;;;12.25;100.00;99753.53;10543096;28;20048;-68
2022/11/16 10:01:26;;;;;;;8.98;2.10;;;;;;;11.39;100.00;99748.56;10538448;28;20455;-65
2022/11/16 10:06:42;;;;;;;;;;;;;;;10.76;100.00;99751.53;10507785;28;20079;-67
2022/11/16 10:12:11;;;;;;;4.63;1.65;;;;;;;11.54;100.00;99746.75;10539044;28;19953;-66
2022/11/16 10:17:26;;;;;;;7.15;1.98;;;;;;;11.29;100.00;99745.69;10538796;28;20480;-66
2022/11/16 10:22:44;;;;;;;8.27;1.85;;;;;;;11.31;100.00;99746.44;10513836;28;20393;-65
2022/11/16 10:28:27;;;;;;;6.60;1.60;;;;;;;11.64;100.00;99743.53;10499854;28;20492;-68
2022/11/16 10:33:35;;;;;;;6.72;1.90;;;;;;;12.09;100.00;99741.50;10499702;28;20049;-65
2022/11/16 10:38:38;;;;;;;5.07;1.45;;;;;;;11.61;100.00;99735.88;10499732;28;20053;-65
2022/11/16 10:43:43;;;;;;;5.38;1.95;;;;;;;12.45;98.60;99746.13;10499449;28;20566;-71
2022/11/16 10:48:58;;;;;;;8.65;1.67;;;;;;;12.56;96.69;99743.59;10538423;28;20113;-70
2022/11/16 10:54:00;;;;;;;5.25;1.60;;;;;;;11.55;100.00;99730.13;10540591;28;20052;-67
2022/11/16 10:59:06;;;;;;;6.50;1.80;;;;;;;10.93;100.00;99749.66;10540566;28;20052;-69
2022/11/16 11:04:18;;;;;;;5.43;1.73;;;;;;;12.21;100.00;99744.22;10521815;28;20128;-66
2022/11/16 11:09:28;;;;;;;6.85;1.58;;;;;;;12.22;99.34;99732.84;10540056;28;20533;-66
2022/11/16 11:14:34;;;;;;;6.15;1.30;;;;;;;12.62;96.39;99732.72;10539719;28;20094;-65
2022/11/16 11:19:37;;;;;;;7.90;1.88;;;;;;;11.22;100.00;99739.16;10537607;28;20048;-66
2022/11/16 11:24:47;;;;;;;4.75;1.60;;;;;;;10.76;100.00;99730.66;10539996;28;20073;-68
2022/11/16 11:29:58;;;;;;;3.25;1.33;;;;;;;10.79;100.00;99725.25;10538533;28;20135;-68
2022/11/16 11:35:02;;;;;;;5.75;1.85;;;;;;;10.55;100.00;99717.97;10539517;28;20601;-69
2022/11/16 11:40:24;;;;;;;3.10;1.33;;;;;;;10.49;100.00;99722.72;10538075;28;20461;-65
2022/11/16 11:45:38;;;;;;;7.65;1.55;;;;;;;10.32;100.00;99714.09;10497293;28;20048;-68
2022/11/16 11:50:47;;;;;;;6.07;1.70;;;;;;;10.35;100.00;99705.25;10493690;28;20049;-76
2022/11/16 11:55:57;;;;;;;5.22;1.85;;;;;;;10.63;100.00;99701.88;10496941;28;20185;-77
2022/11/16 12:01:29;;;;;;;8.27;1.90;;;;;;;12.70;98.63;99681.63;10495231;28;20052;-80
2022/11/16 12:06:40;;;;;;;5.22;1.65;;;;;;;12.58;97.73;99678.91;10494767;28;20114;-77
2022/11/16 12:12:01;;;;;;;3.80;1.60;;;;;;;11.75;99.37;99683.56;10495291;28;20492;-78
2022/11/16 12:17:12;;;;;;;3.27;1.40;;;;;;;12.15;95.45;99667.00;10492289;28;20053;-76
2022/11/16 12:22:34;;;;;;;9.52;1.70;;;;;;;12.92;92.94;99664.38;10494762;28;20325;-75
2022/11/16 12:27:53;;;;;;;5.80;2.13;;;;;;;12.84;90.34;99657.94;10494920;28;20058;-73
2022/11/16 12:33:20;;;;;;;3.22;1.20;;;;;;;12.08;94.09;99661.34;10494169;28;20048;-76
2022/11/16 12:38:41;;;;;;;7.65;1.45;;;;;;;12.28;91.73;99648.69;10495339;28;20502;-74
2022/11/16 12:43:56;;;;;;;3.90;1.33;;;;;;;12.38;93.58;99638.44;10521733;28;20389;-80
2022/11/16 12:49:35;;;;;;;3.38;1.25;;;;;;;12.24;93.02;99639.38;10534692;28;20522;-77
2022/11/16 12:55:00;;;;;;;6.57;1.38;;;;;;;12.82;93.79;99628.41;10536889;28;20228;-74
2022/11/16 13:00:10;;;;;;;4.40;1.70;;;;;;;12.21;93.30;99618.66;10511499;28;20052;-75
2022/11/16 13:05:21;;;;;;;4.28;1.65;;;;;;;12.54;90.91;99614.66;10494877;28;20052;-75
2022/11/16 13:10:28;;;;;;;4.93;1.47;;;;;;;13.06;92.53;99611.88;10494885;28;20475;-75
2022/11/16 13:15:36;;;;;;;7.13;1.45;;;;;;;12.70;90.14;99613.56;10494403;28;20118;-73
2022/11/16 13:20:52;;;;;;;5.07;1.80;;;;;;;12.23;93.95;99608.94;10492047;28;20526;-77
2022/11/16 13:26:09;;;;;;;4.90;1.60;;;;;;;12.95;93.21;99604.78;10494719;28;20056;-76
2022/11/16 13:31:17;;;;;;;3.35;1.42;;;;;;;12.57;91.65;99593.50;10493859;28;20447;-73
2022/11/16 13:36:44;;;;;;;7.28;2.00;;;;;;;12.01;94.18;99602.53;10493632;28;20397;-75
2022/11/16 13:41:48;;;;;;;9.02;2.15;;;;;;;11.67;95.06;99602.22;10493559;28;20102;-75
2022/11/16 13:46:54;;;;;;;3.65;1.30;;;;;;;11.56;95.63;99602.91;10491859;28;20049;-79
2022/11/16 13:52:02;;;;;;;6.07;1.63;;;;;;;11.84;95.54;99601.91;10494290;28;20102;-76
2022/11/16 13:57:21;;;;;;;7.05;1.80;;;;;;;11.74;95.46;99598.28;10499966;28;20069;-81
2022/11/16 14:02:33;;;;;;;8.90;1.92;;;;;;;11.67;96.57;99594.38;10501101;28;20063;-79
2022/11/16 14:07:41;;;;;;;7.78;1.60;;;;;;;11.60;95.91;99601.78;10501011;28;20138;-77
2022/11/16 14:12:54;;;;;;;5.30;1.55;;;;;;;11.40;94.62;99598.72;10501023;28;20040;-79
2022/11/16 14:18:01;;;;;;;6.85;1.77;;;;;;;11.46;96.06;99581.78;10497952;28;20049;-80
2022/11/16 14:23:22;;;;;;;3.50;1.42;;;;;;;11.35;96.14;99579.09;10500112;28;20053;-79
2022/11/16 14:28:42;;;;;;;7.32;1.23;;;;;;;11.06;96.31;99567.00;10501032;28;20056;-80
2022/11/16 14:33:51;;;;;;;5.70;1.50;;;;;;;10.97;96.36;99567.56;10498958;28;20461;-80
2022/11/16 14:38:54;;;;;;;4.22;1.67;;;;;;;10.89;97.15;99561.09;10500138;28;20657;-81
2022/11/16 14:43:57;;;;;;;3.33;1.60;;;;;;;10.80;98.00;99564.28;10499895;28;20483;-80
2022/11/16 14:49:02;;;;;;;4.45;1.75;;;;;;;10.77;98.79;99554.88;10497461;28;20078;-79
2022/11/16 14:54:19;;;;;;;5.47;1.67;;;;;;;10.68;100.00;99542.44;10502952;28;20101;-78
2022/11/16 14:59:21;;;;;;;8.25;1.98;;;;;;;10.55;100.00;99542.38;10502481;28;20060;-79
2022/11/16 15:04:26;;;;;;;4.00;1.42;;;;;;;10.38;100.00;99543.38;10501595;28;20102;-78
2022/11/16 15:09:34;;;;;;;5.78;1.73;;;;;;;10.27;100.00;99531.84;10498693;28;20098;-76
2022/11/16 15:14:41;;;;;;;5.28;1.55;;;;;;;10.12;100.00;99532.78;10497244;28;20048;-76
2022/11/16 15:19:55;;;;;;;5.50;1.92;;;;;;;10.15;100.00;99527.41;10495694;28;20045;-75
2022/11/16 15:25:00;;;;;;;11.65;1.92;;;;;;;9.83;100.00;99496.34;10497684;28;20174;-75
2022/11/16 15:30:13;;;;;;;4.40;2.05;;;;;;;9.89;100.00;99520.25;10496978;28;20094;-71
2022/11/16 15:35:22;;;;;;;6.18;2.72;;;;;;;10.07;100.00;99506.19;10496796;28;20044;-75
2022/11/16 15:40:25;;;;;;;9.00;1.92;;;;;;;10.04;100.00;99499.41;10497435;28;20060;-75
2022/11/16 15:45:28;;;;;;;5.55;1.63;;;;;;;9.96;100.00;99486.00;10496841;28;20054;-76
2022/11/16 15:50:31;;;;;;;4.53;1.60;;;;;;;9.92;100.00;99470.56;10494521;28;20534;-76
2022/11/16 15:55:39;;;;;;;6.82;1.85;;;;;;;9.91;100.00;99478.47;10496633;28;20044;-76
2022/11/16 16:00:41;;;;;;;10.32;2.22;;;;;;;9.84;100.00;99462.38;10496373;28;20105;-75
2022/11/16 16:05:43;;;;;;;9.30;2.17;;;;;;;9.78;100.00;99453.16;10495995;28;20094;-75
2022/11/16 16:10:58;;;;;;;11.88;2.97;;;;;;;9.57;100.00;99442.28;10495746;28;20080;-75
2022/11/16 16:16:30;;;;;;;14.68;3.05;;;;;;;9.27;100.00;99431.03;10493437;28;20094;-76
2022/11/16 16:21:43;;;;;;;11.57;2.35;;;;;;;9.14;100.00;99427.47;10495050;28;20044;-73
2022/11/16 16:26:47;;;;;;;20.20;4.72;;;;;;;9.00;100.00;99431.72;10495330;28;20120;-75
2022/11/16 16:31:49;;;;;;;15.60;3.28;;;;;;;8.88;100.00;99432.44;10495405;28;20048;-75
2022/11/16 16:36:51;;;;;;;19.10;3.75;;;;;;;9.15;100.00;99434.34;10495103;28;20044;-74
2022/11/16 16:41:54;;;;;;;12.80;3.40;;;;;;;9.20;100.00;99426.28;10495360;28;20048;-73
2022/11/16 16:46:55;;;;;;;13.27;2.85;;;;;;;8.95;100.00;99423.34;10493134;28;20117;-72
2022/11/16 16:51:57;;;;;;;11.52;2.75;;;;;;;8.94;100.00;99420.84;10495005;28;20044;-74
2022/11/16 16:57:02;;;;;;;11.48;3.10;;;;;;;9.16;100.00;99402.19;10494809;28;20052;-69
2022/11/16 17:02:03;;;;;;;3.88;1.80;;;;;;;9.19;100.00;99395.97;10494324;28;20458;-72
2022/11/16 17:07:08;;;;;;;6.60;2.15;;;;;;;8.80;100.00;99398.22;10494853;28;20063;-73
2022/11/16 17:12:11;;;;;;;5.35;2.17;;;;;;;9.18;100.00;99392.53;10494383;28;20048;-72
2022/11/16 17:17:14;;;;;;;10.77;2.38;;;;;;;8.82;100.00;99385.97;10492451;28;20045;-73
2022/11/16 17:22:17;;;;;;;9.07;2.88;;;;;;;8.99;100.00;99378.00;10493825;28;20063;-73
2022/11/16 17:27:21;;;;;;;8.70;2.47;;;;;;;8.84;100.00;99384.13;10493605;28;20048;-73
2022/11/16 17:32:22;;;;;;;6.47;2.45;;;;;;;8.96;100.00;99378.19;10499991;28;20106;-73
2022/11/16 17:37:25;;;;;;;3.00;2.20;;;;;;;9.06;100.00;99372.44;10502217;28;20121;-74
2022/11/16 17:42:28;;;;;;;3.40;2.30;;;;;;;9.07;100.00;99366.31;10501770;28;20052;-73
2022/11/16 17:47:32;;;;;;;6.30;2.35;;;;;;;8.92;100.00;99358.47;10498963;28;20052;-74
2022/11/16 17:52:33;;;;;;;7.15;2.55;;;;;;;8.94;100.00;99359.25;10500760;28;20140;-72
2022/11/16 17:57:36;;;;;;;6.30;2.63;;;;;;;8.93;100.00;99362.75;10499612;28;20264;-75
2022/11/16 18:02:38;;;;;;;6.85;2.25;;;;;;;8.90;100.00;99362.97;10499798;28;20064;-74
2022/11/16 18:07:40;;;;;;;7.35;2.90;;;;;;;9.00;100.00;99356.25;10499511;28;20044;-75
2022/11/16 18:12:43;;;;;;;5.72;2.42;;;;;;;9.03;100.00;99357.84;10498581;28;20045;-76
2022/11/16 18:17:48;;;;;;;5.03;2.53;;;;;;;8.98;100.00;99360.72;10496095;28;20385;-75
2022/11/16 18:22:50;;;;;;;4.10;2.63;;;;;;;9.06;100.00;99356.84;10498502;28;20419;-75
2022/11/16 18:27:55;;;;;;;5.90;2.30;;;;;;;9.12;100.00;99351.25;10498491;28;20109;-73
2022/11/16 18:32:57;;;;;;;2.80;1.85;;;;;;;9.15;100.00;99356.28;10498061;28;20083;-74
2022/11/16 18:38:00;;;;;;;7.22;2.53;;;;;;;9.17;100.00;99348.38;10498698;28;20048;-73
2022/11/16 18:43:03;;;;;;;5.07;2.45;;;;;;;9.13;100.00;99347.72;10497415;28;20044;-75
2022/11/16 18:48:05;;;;;;;7.30;2.47;;;;;;;9.10;100.00;99332.31;10495544;28;20456;-74
2022/11/16 18:53:07;;;;;;;4.38;2.50;;;;;;;9.06;100.00;99330.81;10497285;28;20048;-72
2022/11/16 18:58:11;;;;;;;3.05;2.03;;;;;;;8.99;100.00;99331.19;10497345;28;20049;-75
2022/11/16 19:03:13;;;;;;;4.95;2.10;;;;;;;8.90;100.00;99321.34;10497291;28;20052;-76
2022/11/16 19:08:16;;;;;;;5.32;2.50;;;;;;;8.92;100.00;99303.84;10502555;28;20101;-76
2022/11/16 19:13:19;;;;;;;5.03;2.30;;;;;;;8.85;100.00;99302.53;10538644;28;20078;-76
2022/11/16 19:18:21;;;;;;;5.35;2.20;;;;;;;8.67;100.00;99294.91;10535901;28;20496;-76
2022/11/16 19:23:22;;;;;;;4.85;2.45;;;;;;;8.75;100.00;99284.91;10538260;28;20044;-74
2022/11/16 19:28:27;;;;;;;6.95;2.63;;;;;;;8.74;100.00;99265.03;10537957;28;20504;-72
2022/11/16 19:33:28;;;;;;;9.30;4.03;;;;;;;8.81;100.00;99254.22;10537495;28;20097;-75
2022/11/16 19:38:30;;;;;;;3.55;2.88;;;;;;;8.72;100.00;99243.47;10533492;28;20064;-76
2022/11/16 19:43:34;;;;;;;3.78;2.45;;;;;;;8.79;100.00;99219.69;10526190;28;20067;-77
2022/11/16 19:48:36;;;;;;;3.05;2.30;;;;;;;8.70;100.00;99206.31;10499062;28;20491;-73
2022/11/16 19:53:39;;;;;;;3.17;1.88;;;;;;;8.71;100.00;99187.19;10522318;28;20055;-74
2022/11/16 19:58:43;;;;;;;6.00;2.70;;;;;;;8.57;100.00;99174.16;10536647;28;20044;-75
2022/11/16 20:03:46;;;;;;;3.13;2.60;;;;;;;8.62;100.00;99166.91;10536796;28;20059;-74
2022/11/16 20:08:51;;;;;;;6.70;2.65;;;;;;;8.63;100.00;99163.41;10537079;28;20060;-73
2022/11/16 20:13:56;;;;;;;10.15;2.47;;;;;;;8.56;100.00;99156.91;10536742;28;20052;-76
2022/11/16 20:18:58;;;;;;;5.32;2.83;;;;;;;8.67;100.00;99143.22;10533703;28;20048;-73
2022/11/16 20:24:02;;;;;;;4.15;2.40;;;;;;;8.64;100.00;99141.66;10535923;28;20043;-73
2022/11/16 20:29:05;;;;;;;2.15;1.98;;;;;;;8.75;100.00;99125.38;10537050;28;20048;-74
2022/11/16 20:34:10;;;;;;;5.55;2.90;;;;;;;8.78;100.00;99109.59;10537322;28;20059;-74
2022/11/16 20:39:15;;;;;;;4.90;2.25;;;;;;;8.94;100.00;99109.47;10537220;28;20062;-73
2022/11/16 20:44:20;;;;;;;5.00;2.38;;;;;;;8.91;100.00;99103.63;10537157;28;20048;-74
2022/11/16 20:49:22;;;;;;;5.88;2.13;;;;;;;8.94;100.00;99098.22;10535694;28;20072;-73
2022/11/16 20:54:24;;;;;;;4.57;2.42;;;;;;;9.00;100.00;99092.66;10541796;28;20044;-75
2022/11/16 20:59:27;;;;;;;9.27;2.50;;;;;;;8.97;100.00;99083.25;10542590;28;20048;-75
2022/11/16 21:04:29;;;;;;;3.40;2.42;;;;;;;9.04;100.00;99078.50;10538875;28;20084;-74
2022/11/16 21:10:17;;;;;;;3.45;1.83;;;;;;;9.06;100.00;99070.59;10545129;28;20101;-70
2022/11/16 21:14:53;;;;;;;4.17;2.63;;;;;;;9.09;100.00;99059.97;10545068;28;20075;-73
2022/11/16 21:19:55;;;;;;;7.40;2.40;;;;;;;9.19;100.00;99044.59;10542287;28;20309;-73
2022/11/16 21:24:56;;;;;;;2.13;1.92;;;;;;;9.13;100.00;99035.41;10543746;28;20101;-73
2022/11/16 21:29:59;;;;;;;4.45;2.47;;;;;;;9.04;100.00;99021.25;10543673;28;20139;-72
2022/11/16 21:35:01;;;;;;;1.90;1.77;;;;;;;9.02;100.00;99008.34;10543164;28;20074;-70
2022/11/16 21:40:05;;;;;;;5.45;2.63;;;;;;;8.99;100.00;98998.13;10543086;28;20132;-72
2022/11/16 21:45:16;;;;;;;4.05;2.85;;;;;;;8.84;100.00;98988.72;10543147;28;20059;-72
2022/11/16 21:50:18;;;;;;;5.30;2.50;;;;;;;8.80;100.00;98974.25;10540475;28;20059;-72
2022/11/16 21:55:20;;;;;;;8.05;2.67;;;;;;;8.65;100.00;98958.69;10542160;28;20441;-72
2022/11/16 22:00:23;;;;;;;4.53;2.90;;;;;;;8.61;100.00;98947.66;10543832;28;20104;-72
2022/11/16 22:10:49;;;;;;;4.90;2.85;;;;;;;8.44;100.00;98909.72;10542951;28;20046;-73
2022/11/16 22:15:52;;;;;;;5.03;2.58;;;;;;;8.38;100.00;98887.56;10540392;28;20399;-71
2022/11/16 22:20:55;;;;;;;5.88;3.15;;;;;;;8.35;100.00;98858.34;10539735;28;20055;-72
2022/11/16 22:26:01;;;;;;;5.07;3.45;;;;;;;8.30;100.00;98855.19;10541663;28;20105;-71
2022/11/16 22:31:07;;;;;;;6.60;2.85;;;;;;;8.30;100.00;98834.41;10540913;28;20070;-70
2022/11/16 22:36:12;;;;;;;3.67;2.17;;;;;;;8.29;100.00;98814.56;10541643;28;20113;-73
2022/11/16 22:41:13;;;;;;;4.22;2.00;;;;;;;8.32;100.00;98790.97;10540644;28;20514;-72
2022/11/16 22:46:16;;;;;;;2.53;1.65;;;;;;;8.32;100.00;98770.19;10539361;28;20048;-70
2022/11/16 22:51:20;;;;;;;3.33;2.13;;;;;;;8.30;100.00;98766.84;10540945;28;20052;-71
2022/11/16 22:56:23;;;;;;;3.40;1.58;;;;;;;8.40;100.00;98757.50;10540065;28;20054;-70
2022/11/16 23:01:26;;;;;;;;;;;;;;;8.39;100.00;98729.84;10540611;28;20070;-70
2022/11/16 23:06:28;;;;;;;3.72;1.60;;;;;;;8.44;100.00;98706.13;10540425;28;20391;-73
2022/11/16 23:16:50;;;;;;;9.68;1.83;;;;;;;8.47;100.00;98679.94;10537278;28;20044;-75
2022/11/16 23:32:34;;;;;;;2.33;1.90;;;;;;;8.50;100.00;98627.75;10533205;28;20056;-75
2022/11/16 23:37:51;;;;;;;7.80;2.70;;;;;;;8.51;100.00;98611.19;10538443;28;20499;-73
2022/11/16 23:48:16;;;;;;;3.67;2.65;;;;;;;8.48;100.00;98570.66;10536445;28;20056;-73
2022/11/16 23:53:18;;;;;;;7.18;3.08;;;;;;;8.55;100.00;98549.47;10538356;28;20483;-75
2022/11/16 23:58:20;;;;;;;4.28;2.22;;;;;;;8.54;100.00;98512.22;10537838;28;20105;-71
